Time;durP1;ratioP1;P1;durP2;ratioP2;P2;SDS_P1;SDS_P2;PMS_P1;PMS_P2;Temp;Humidity;BMP_temperature;BMP_pressure;BME280_temperature;BME280_humidity;BME280_pressure;Samples;Min_cycle;Max_cycle;Signal;HPM_P1;HPM_P2
2022/06/18 00:00:39;;;;;;;2.50;2.30;;;20.70;83.70;;;;;;5051722;28;20407;-70
2022/06/18 00:03:05;;;;;;;2.63;2.30;;;20.70;84.00;;;;;;5033762;28;20499;-70
2022/06/18 00:05:33;;;;;;;2.97;2.67;;;20.70;84.40;;;;;;5051213;28;20494;-69
2022/06/18 00:07:59;;;;;;;4.23;2.37;;;20.60;84.70;;;;;;5051441;28;20171;-69
2022/06/18 00:10:29;;;;;;;3.03;2.70;;;20.60;85.10;;;;;;5033588;28;20421;-70
2022/06/18 00:15:45;;;;;;;5.23;3.10;;;20.50;86.10;;;;;;5051763;28;20489;-69
2022/06/18 00:18:13;;;;;;;2.37;2.17;;;20.40;85.80;;;;;;5051742;28;20410;-70
2022/06/18 00:20:40;;;;;;;4.27;2.30;;;20.40;86.00;;;;;;5051322;28;20165;-69
2022/06/18 00:23:12;;;;;;;3.07;2.60;;;20.40;86.20;;;;;;5051257;28;20415;-69
2022/06/18 00:25:40;;;;;;;2.90;2.60;;;20.30;86.40;;;;;;5051123;28;20886;-70
2022/06/18 00:28:22;;;;;;;4.23;2.67;;;20.30;86.80;;;;;;5051441;28;20407;-69
2022/06/18 00:30:49;;;;;;;3.40;3.10;;;20.30;86.70;;;;;;5051675;28;20405;-69
2022/06/18 00:33:14;;;;;;;3.20;2.90;;;20.20;86.80;;;;;;5051540;28;20956;-69
2022/06/18 00:35:41;;;;;;;3.20;2.90;;;20.30;87.10;;;;;;5050945;28;20524;-69
2022/06/18 00:38:13;;;;;;;2.87;2.57;;;20.20;87.00;;;;;;5051652;28;20167;-69
2022/06/18 00:40:41;;;;;;;3.10;2.60;;;20.20;87.30;;;;;;5051534;28;20405;-69
2022/06/18 00:43:31;;;;;;;4.80;2.63;;;20.10;86.90;;;;;;5050953;28;20507;-70
2022/06/18 00:46:04;;;;;;;3.23;2.87;;;20.10;86.80;;;;;;5050700;28;20559;-70
2022/06/18 00:48:39;;;;;;;3.33;2.70;;;20.10;86.50;;;;;;5054061;28;20428;-69
2022/06/18 00:51:08;;;;;;;3.70;3.13;;;20.10;86.40;;;;;;5036989;28;20797;-69
2022/06/18 00:53:42;;;;;;;3.17;2.70;;;20.20;86.10;;;;;;5054869;28;20760;-68
2022/06/18 00:56:30;;;;;;;3.13;2.93;;;20.20;85.80;;;;;;5054736;28;20907;-70
2022/06/18 00:59:04;;;;;;;3.20;3.00;;;20.20;85.30;;;;;;5054850;28;20421;-69
2022/06/18 01:01:34;;;;;;;4.20;2.50;;;20.30;85.40;;;;;;5054762;28;20893;-70
2022/06/18 01:03:59;;;;;;;3.77;2.87;;;20.20;85.20;;;;;;5054873;28;20843;-70
2022/06/18 01:06:32;;;;;;;2.73;2.50;;;20.20;85.20;;;;;;5054362;28;20421;-70
2022/06/18 01:09:02;;;;;;;3.47;3.10;;;20.20;85.30;;;;;;5054565;28;20167;-70
2022/06/18 01:11:31;;;;;;;3.30;2.97;;;20.20;85.40;;;;;;5054711;28;20422;-70
2022/06/18 01:13:58;;;;;;;2.57;2.37;;;20.10;85.30;;;;;;5054697;28;20420;-70
2022/06/18 01:16:25;;;;;;;2.90;2.70;;;20.10;85.40;;;;;;5054483;28;20932;-70
2022/06/18 01:18:52;;;;;;;3.70;3.20;;;20.10;85.50;;;;;;5054881;28;20778;-70
2022/06/18 01:21:44;;;;;;;3.77;3.27;;;20.00;85.40;;;;;;5054407;28;20398;-70
2022/06/18 01:24:17;;;;;;;2.90;2.70;;;19.90;85.70;;;;;;5054192;28;20454;-70
2022/06/18 01:26:46;;;;;;;3.20;2.93;;;19.90;85.70;;;;;;5054095;28;20409;-70
2022/06/18 01:29:12;;;;;;;4.83;2.90;;;19.90;85.80;;;;;;5054100;28;20408;-70
2022/06/18 01:31:37;;;;;;;3.30;2.70;;;19.90;86.00;;;;;;5054115;28;20510;-70
2022/06/18 01:34:04;;;;;;;3.47;3.17;;;19.80;86.10;;;;;;5051294;28;20253;-70
2022/06/18 01:36:34;;;;;;;3.83;3.53;;;19.80;86.20;;;;;;5053929;28;20195;-69
2022/06/18 01:39:01;;;;;;;3.80;3.50;;;19.70;86.70;;;;;;5054194;28;20418;-69
2022/06/18 01:41:52;;;;;;;3.57;3.17;;;19.80;86.80;;;;;;5053946;28;20421;-69
2022/06/18 01:44:42;;;;;;;3.47;3.17;;;19.70;86.90;;;;;;5053734;28;20449;-69
2022/06/18 01:47:21;;;;;;;3.23;2.90;;;19.60;87.40;;;;;;5054027;28;20438;-70
2022/06/18 01:49:50;;;;;;;3.13;2.90;;;19.50;87.70;;;;;;5054144;28;20422;-70
2022/06/18 01:52:21;;;;;;;3.83;3.47;;;19.40;88.00;;;;;;5054297;28;20408;-70
2022/06/18 01:54:54;;;;;;;3.23;3.03;;;19.40;88.20;;;;;;5035912;28;20442;-70
2022/06/18 01:57:31;;;;;;;2.57;2.37;;;19.40;88.50;;;;;;5035927;28;20433;-70
2022/06/18 02:00:05;;;;;;;2.87;2.67;;;19.30;88.60;;;;;;5053562;28;20443;-70
2022/06/18 02:02:30;;;;;;;3.03;2.77;;;19.30;88.90;;;;;;5053564;28;20421;-69
2022/06/18 02:04:57;;;;;;;4.00;2.80;;;19.30;89.10;;;;;;5053589;28;20458;-70
2022/06/18 02:07:22;;;;;;;3.73;2.97;;;19.30;89.20;;;;;;5053772;28;20174;-69
2022/06/18 02:09:58;;;;;;;5.10;3.00;;;19.30;89.50;;;;;;5053550;28;20875;-69
2022/06/18 02:12:28;;;;;;;3.10;2.90;;;19.20;89.50;;;;;;5053295;28;20170;-69
2022/06/18 02:14:59;;;;;;;2.30;2.20;;;19.20;89.70;;;;;;5053164;28;20426;-69
2022/06/18 02:17:27;;;;;;;2.63;2.43;;;19.10;89.90;;;;;;5053568;28;20887;-69
2022/06/18 02:20:00;;;;;;;3.63;2.80;;;19.10;90.10;;;;;;5053677;28;21000;-70
2022/06/18 02:22:37;;;;;;;3.50;3.20;;;19.10;90.20;;;;;;5053305;28;20458;-70
2022/06/18 02:25:02;;;;;;;3.60;2.70;;;19.00;90.40;;;;;;5052720;28;20474;-69
2022/06/18 02:27:28;;;;;;;3.07;2.70;;;19.00;90.60;;;;;;5053322;28;20403;-70
2022/06/18 02:29:55;;;;;;;2.47;2.10;;;19.00;90.70;;;;;;5053355;28;20171;-70
2022/06/18 02:32:31;;;;;;;3.07;2.80;;;19.00;90.80;;;;;;5053268;28;20182;-70
2022/06/18 02:34:56;;;;;;;3.13;2.47;;;18.90;91.00;;;;;;5052898;28;20512;-70
2022/06/18 02:37:28;;;;;;;2.90;2.60;;;19.00;91.10;;;;;;5052999;28;20563;-70
2022/06/18 02:40:00;;;;;;;2.87;2.67;;;19.00;91.10;;;;;;5052819;28;20188;-70
2022/06/18 02:42:34;;;;;;;3.20;2.90;;;19.00;91.20;;;;;;5052852;28;20731;-70
2022/06/18 02:45:03;;;;;;;3.10;2.83;;;19.00;91.40;;;;;;5052455;28;20474;-70
2022/06/18 02:47:28;;;;;;;2.50;2.30;;;18.80;91.50;;;;;;5052887;28;20824;-70
2022/06/18 02:49:59;;;;;;;2.70;2.50;;;18.80;91.70;;;;;;5052668;28;20417;-70
2022/06/18 02:52:28;;;;;;;3.03;2.73;;;18.80;91.80;;;;;;5052763;28;20166;-70
2022/06/18 02:55:08;;;;;;;2.60;2.33;;;18.70;92.00;;;;;;5052410;28;20429;-69
2022/06/18 02:57:34;;;;;;;3.67;2.47;;;18.70;92.00;;;;;;5052611;28;20921;-70
2022/06/18 03:00:00;;;;;;;2.10;1.90;;;18.80;92.10;;;;;;5052707;28;20424;-70
2022/06/18 03:02:25;;;;;;;3.40;2.90;;;18.80;92.20;;;;;;5052353;28;20177;-69
2022/06/18 03:04:51;;;;;;;2.20;2.00;;;18.80;92.30;;;;;;5052095;28;20202;-69
2022/06/18 03:07:16;;;;;;;5.60;2.40;;;18.80;92.30;;;;;;5052410;28;20174;-69
2022/06/18 03:12:26;;;;;;;2.60;2.40;;;19.00;92.20;;;;;;5052289;28;20181;-70
2022/06/18 03:14:52;;;;;;;2.27;2.17;;;18.90;92.30;;;;;;5051814;28;20433;-69
2022/06/18 03:17:17;;;;;;;2.63;2.43;;;18.80;92.40;;;;;;5052318;28;20172;-69
2022/06/18 03:19:50;;;;;;;2.70;2.50;;;18.80;92.50;;;;;;5052249;28;20519;-69
2022/06/18 03:22:19;;;;;;;2.33;2.10;;;18.80;92.70;;;;;;5052276;28;20182;-69
2022/06/18 03:24:45;;;;;;;2.47;2.17;;;18.80;92.80;;;;;;5051793;28;20483;-69
2022/06/18 03:27:14;;;;;;;2.07;1.70;;;18.90;92.70;;;;;;5052040;28;20404;-69
2022/06/18 03:29:39;;;;;;;3.10;2.50;;;19.00;92.70;;;;;;5051845;28;20486;-69
2022/06/18 03:32:05;;;;;;;2.20;2.00;;;18.90;92.70;;;;;;5051943;28;20496;-70
2022/06/18 03:34:31;;;;;;;2.87;2.30;;;19.00;92.70;;;;;;5051695;28;20165;-69
2022/06/18 03:36:57;;;;;;;1.87;1.63;;;19.00;92.70;;;;;;5052052;28;20456;-69
2022/06/18 03:39:23;;;;;;;2.17;2.00;;;19.00;92.60;;;;;;5051932;28;20245;-70
2022/06/18 03:41:49;;;;;;;2.27;2.07;;;19.00;92.80;;;;;;5051980;28;20446;-70
2022/06/18 03:44:15;;;;;;;2.13;2.03;;;19.00;93.00;;;;;;5051511;28;20451;-69
2022/06/18 03:46:43;;;;;;;2.70;2.50;;;19.00;93.10;;;;;;5051261;28;20622;-69
2022/06/18 03:49:25;;;;;;;2.50;2.30;;;19.10;93.10;;;;;;5052021;28;20495;-69
2022/06/18 03:51:52;;;;;;;2.50;2.30;;;19.10;93.20;;;;;;5051895;28;20436;-69
2022/06/18 03:54:17;;;;;;;7.03;2.53;;;19.10;93.30;;;;;;5051733;28;20405;-69
2022/06/18 03:56:43;;;;;;;2.53;2.33;;;19.10;93.30;;;;;;5051567;28;20415;-70
2022/06/18 03:59:10;;;;;;;2.70;2.03;;;19.10;93.30;;;;;;5051617;28;20538;-70
2022/06/18 04:01:40;;;;;;;1.60;1.50;;;19.10;93.40;;;;;;5051540;28;20602;-69
2022/06/18 04:04:06;;;;;;;2.53;2.33;;;19.20;93.30;;;;;;5051630;28;20446;-70
2022/06/18 04:06:32;;;;;;;1.90;1.80;;;19.20;93.30;;;;;;5051227;28;20432;-69
2022/06/18 04:08:58;;;;;;;2.70;2.00;;;19.30;93.20;;;;;;5051640;28;20394;-69
2022/06/18 04:11:23;;;;;;;2.70;1.97;;;19.30;93.20;;;;;;5051633;28;20784;-69
2022/06/18 04:13:49;;;;;;;2.83;2.27;;;19.40;93.00;;;;;;5051912;28;20698;-69
2022/06/18 04:16:15;;;;;;;2.80;1.40;;;19.80;92.90;;;;;;5051424;28;20191;-70
2022/06/18 04:18:41;;;;;;;2.07;1.87;;;20.60;92.20;;;;;;5051385;28;20170;-69
2022/06/18 04:21:07;;;;;;;3.30;1.57;;;21.20;90.80;;;;;;5051466;28;20239;-69
2022/06/18 04:23:33;;;;;;;1.70;1.60;;;21.60;90.20;;;;;;5054309;28;20909;-69
2022/06/18 04:25:58;;;;;;;1.60;1.50;;;22.10;88.70;;;;;;5055003;28;20215;-70
2022/06/18 04:28:24;;;;;;;2.27;1.80;;;22.80;87.00;;;;;;5055382;28;20240;-70
2022/06/18 04:30:50;;;;;;;2.27;2.10;;;23.40;85.70;;;;;;5055425;28;20639;-71
2022/06/18 04:33:15;;;;;;;2.43;1.70;;;23.30;85.60;;;;;;5055375;28;20489;-70
2022/06/18 04:35:41;;;;;;;2.90;1.30;;;23.00;85.70;;;;;;5055099;28;20193;-70
2022/06/18 04:38:07;;;;;;;1.50;1.40;;;23.20;84.60;;;;;;5055272;28;20209;-69
2022/06/18 04:40:34;;;;;;;4.63;1.70;;;23.50;83.40;;;;;;5055173;28;20174;-68
2022/06/18 04:43:05;;;;;;;4.30;1.90;;;23.80;82.80;;;;;;5055152;28;20415;-69
2022/06/18 04:45:31;;;;;;;1.60;1.50;;;24.10;82.20;;;;;;5054795;28;20471;-69
2022/06/18 04:47:57;;;;;;;3.47;1.57;;;24.00;81.80;;;;;;5055183;28;20397;-70
2022/06/18 04:50:27;;;;;;;2.07;1.87;;;23.60;81.80;;;;;;5055008;28;20403;-69
2022/06/18 04:52:52;;;;;;;2.80;1.87;;;23.40;82.50;;;;;;5054713;28;20408;-69
2022/06/18 04:55:18;;;;;;;1.60;1.50;;;23.30;82.80;;;;;;5054848;28;20436;-69
2022/06/18 04:57:44;;;;;;;1.87;1.77;;;23.40;82.50;;;;;;5054894;28;20627;-69
2022/06/18 05:00:10;;;;;;;1.27;1.17;;;23.40;82.90;;;;;;5054745;28;20413;-69
2022/06/18 05:02:36;;;;;;;2.13;2.00;;;23.40;82.60;;;;;;5054733;28;20175;-70
2022/06/18 05:05:05;;;;;;;1.47;1.20;;;23.60;82.60;;;;;;5054355;28;20453;-70
2022/06/18 05:07:31;;;;;;;1.40;1.30;;;23.70;82.10;;;;;;5054667;28;20626;-70
2022/06/18 05:09:56;;;;;;;1.30;1.20;;;24.10;80.60;;;;;;5054721;28;20974;-69
2022/06/18 05:12:22;;;;;;;2.60;1.20;;;24.00;79.60;;;;;;5054369;28;20163;-69
2022/06/18 05:14:48;;;;;;;1.37;1.20;;;24.00;79.20;;;;;;5054494;28;20712;-69
2022/06/18 05:17:21;;;;;;;1.80;1.70;;;24.60;78.70;;;;;;5054536;28;20277;-69
2022/06/18 05:19:47;;;;;;;1.30;1.20;;;24.70;78.10;;;;;;5054605;28;20557;-69
2022/06/18 05:22:13;;;;;;;1.23;1.13;;;25.00;76.80;;;;;;5054290;28;20404;-70
2022/06/18 05:24:38;;;;;;;1.80;1.10;;;24.70;76.30;;;;;;5054106;28;20456;-70
2022/06/18 05:27:05;;;;;;;1.20;1.10;;;24.90;75.80;;;;;;5054608;28;20209;-70
2022/06/18 05:29:30;;;;;;;1.73;1.17;;;25.00;76.30;;;;;;5054344;28;20198;-70
2022/06/18 05:31:56;;;;;;;1.93;1.10;;;25.30;75.40;;;;;;5054270;28;20433;-70
2022/06/18 05:34:21;;;;;;;1.20;1.10;;;25.70;74.40;;;;;;5053673;28;20175;-70
2022/06/18 05:36:47;;;;;;;2.77;1.30;;;26.10;73.60;;;;;;5053928;28;20175;-70
2022/06/18 05:39:18;;;;;;;1.50;1.40;;;26.60;72.60;;;;;;5054082;28;20171;-70
2022/06/18 05:41:45;;;;;;;1.30;1.20;;;26.70;71.50;;;;;;5053970;28;20580;-70
2022/06/18 05:44:10;;;;;;;1.60;1.50;;;26.70;71.10;;;;;;5053862;28;20453;-70
2022/06/18 05:46:37;;;;;;;1.37;1.00;;;26.70;70.60;;;;;;5054160;28;20498;-70
2022/06/18 05:49:03;;;;;;;1.00;0.90;;;26.90;70.50;;;;;;5053874;28;20250;-69
2022/06/18 05:51:28;;;;;;;3.70;1.27;;;26.70;70.10;;;;;;5053810;28;20447;-70
2022/06/18 05:53:54;;;;;;;1.40;1.23;;;26.60;71.40;;;;;;5053901;28;20237;-72
2022/06/18 05:56:19;;;;;;;2.30;1.10;;;27.10;70.30;;;;;;5053351;28;20190;-69
2022/06/18 05:58:45;;;;;;;2.10;1.37;;;26.80;70.00;;;;;;5053721;28;20167;-70
2022/06/18 06:01:11;;;;;;;1.60;1.23;;;27.00;70.40;;;;;;5053899;28;20742;-69
2022/06/18 06:03:37;;;;;;;1.43;1.33;;;26.80;71.00;;;;;;5053621;28;20691;-69
2022/06/18 06:06:03;;;;;;;1.80;1.40;;;27.70;69.00;;;;;;5053746;28;20210;-71
2022/06/18 06:08:29;;;;;;;1.20;1.10;;;28.30;66.50;;;;;;5053943;28;20174;-69
2022/06/18 06:13:38;;;;;;;1.17;1.07;;;27.90;67.10;;;;;;5054727;28;20667;-69
2022/06/18 06:16:04;;;;;;;1.93;1.30;;;28.80;65.80;;;;;;5054795;28;20429;-69
2022/06/18 06:18:31;;;;;;;1.20;1.10;;;28.80;66.40;;;;;;5054615;28;20193;-70
2022/06/18 06:20:58;;;;;;;2.10;1.17;;;29.20;64.40;;;;;;5054789;28;20240;-69
2022/06/18 06:23:23;;;;;;;1.53;1.00;;;29.20;63.90;;;;;;5053919;28;20413;-69
2022/06/18 06:25:50;;;;;;;1.20;1.10;;;29.30;63.90;;;;;;5053142;28;20471;-70
2022/06/18 06:28:17;;;;;;;1.80;1.70;;;29.10;65.10;;;;;;5053191;28;20166;-69
2022/06/18 06:30:42;;;;;;;1.93;1.20;;;29.40;64.00;;;;;;5053180;28;20440;-69
2022/06/18 06:33:08;;;;;;;1.20;1.10;;;29.60;63.90;;;;;;5053128;28;20943;-69
2022/06/18 06:35:34;;;;;;;1.87;1.20;;;30.30;61.90;;;;;;5052817;28;20179;-69
2022/06/18 06:38:01;;;;;;;1.17;1.07;;;30.00;62.50;;;;;;5053204;28;20205;-69
2022/06/18 06:40:27;;;;;;;1.37;1.27;;;30.00;63.50;;;;;;5053412;28;20408;-69
2022/06/18 06:42:55;;;;;;;1.90;1.80;;;30.80;60.00;;;;;;5052776;28;20409;-69
2022/06/18 06:45:25;;;;;;;2.00;1.60;;;30.60;61.00;;;;;;5051440;28;20207;-69
2022/06/18 06:47:52;;;;;;;1.30;1.20;;;30.20;61.40;;;;;;5052935;28;20405;-69
2022/06/18 06:50:19;;;;;;;1.37;1.27;;;30.60;60.30;;;;;;5052927;28;20416;-69
2022/06/18 06:52:48;;;;;;;1.60;1.50;;;30.80;60.50;;;;;;5052762;28;20780;-69
2022/06/18 06:58:00;;;;;;;3.93;1.47;;;30.40;60.60;;;;;;5054007;28;20443;-70
2022/06/18 07:00:26;;;;;;;2.67;1.50;;;30.30;61.50;;;;;;5053526;28;20811;-70
2022/06/18 07:02:52;;;;;;;2.00;1.87;;;31.80;58.60;;;;;;5052608;28;20197;-69
2022/06/18 07:05:17;;;;;;;1.90;1.60;;;32.20;58.50;;;;;;5052116;28;20561;-69
2022/06/18 07:07:43;;;;;;;1.43;1.33;;;32.20;57.70;;;;;;5052574;28;20198;-69
2022/06/18 07:10:10;;;;;;;3.17;2.50;;;31.70;58.30;;;;;;5052584;28;20206;-69
2022/06/18 07:12:36;;;;;;;2.50;2.13;;;32.80;58.20;;;;;;5052020;28;20171;-69
2022/06/18 07:15:03;;;;;;;2.97;2.33;;;32.30;56.60;;;;;;5051996;28;20779;-69
2022/06/18 07:17:29;;;;;;;2.63;2.43;;;32.40;56.60;;;;;;5052251;28;20189;-69
2022/06/18 07:19:54;;;;;;;2.50;2.17;;;31.70;58.50;;;;;;5052261;28;20413;-69
2022/06/18 07:22:20;;;;;;;2.43;2.23;;;32.30;55.60;;;;;;5051957;28;20178;-69
2022/06/18 07:24:45;;;;;;;2.83;2.07;;;31.50;56.50;;;;;;5051669;28;20210;-70
2022/06/18 07:27:11;;;;;;;1.97;1.87;;;31.50;58.20;;;;;;5051732;28;20253;-68
2022/06/18 07:29:36;;;;;;;2.23;2.00;;;32.10;58.70;;;;;;5051976;28;20189;-68
2022/06/18 07:32:14;;;;;;;2.00;1.70;;;31.80;58.20;;;;;;5052100;28;20162;-70
2022/06/18 07:34:39;;;;;;;2.40;2.20;;;31.90;57.80;;;;;;5051701;28;20704;-70
2022/06/18 07:37:05;;;;;;;2.17;1.97;;;31.40;57.60;;;;;;5051938;28;20431;-70
2022/06/18 07:39:31;;;;;;;2.40;2.20;;;31.50;57.70;;;;;;5051869;28;20167;-69
2022/06/18 07:41:56;;;;;;;1.80;1.70;;;32.70;56.20;;;;;;5051868;28;20533;-69
2022/06/18 07:44:24;;;;;;;1.80;1.60;;;33.90;55.30;;;;;;5051542;28;20217;-69
2022/06/18 07:46:51;;;;;;;1.73;1.57;;;33.60;55.60;;;;;;5051879;28;20186;-69
2022/06/18 07:49:17;;;;;;;1.73;1.63;;;34.30;54.70;;;;;;5052084;28;20770;-69
2022/06/18 07:51:44;;;;;;;1.90;1.80;;;34.10;55.30;;;;;;5051781;28;20401;-68
2022/06/18 07:54:13;;;;;;;1.50;1.40;;;33.60;53.70;;;;;;5051645;28;20610;-68
2022/06/18 07:56:39;;;;;;;2.33;1.70;;;32.50;55.60;;;;;;5051341;28;20445;-68
2022/06/18 07:59:04;;;;;;;1.50;1.30;;;32.60;55.30;;;;;;5051751;28;20495;-69
2022/06/18 08:01:30;;;;;;;1.40;1.30;;;32.70;55.10;;;;;;5051583;28;20423;-69
2022/06/18 08:03:56;;;;;;;1.90;1.70;;;33.00;56.80;;;;;;5051414;28;20171;-69
2022/06/18 08:06:21;;;;;;;2.50;1.67;;;34.30;52.80;;;;;;5051519;28;20431;-69
2022/06/18 08:08:47;;;;;;;1.53;1.10;;;33.70;53.90;;;;;;5051327;28;20169;-69
2022/06/18 08:11:15;;;;;;;2.97;1.87;;;34.20;54.40;;;;;;5051531;28;20163;-69
2022/06/18 08:13:41;;;;;;;1.60;1.50;;;33.40;54.90;;;;;;5051295;28;20246;-69
2022/06/18 08:16:09;;;;;;;1.77;1.43;;;33.60;55.10;;;;;;5051126;28;20479;-68
2022/06/18 08:18:34;;;;;;;1.33;1.23;;;34.10;54.00;;;;;;5051564;28;20405;-70
2022/06/18 08:21:23;;;;;;;1.57;1.47;;;34.00;52.70;;;;;;5051381;28;20405;-68
2022/06/18 08:23:51;;;;;;;1.30;1.20;;;34.10;53.30;;;;;;5050731;28;20417;-69
2022/06/18 08:26:17;;;;;;;1.93;1.30;;;33.50;54.10;;;;;;5050957;28;21011;-70
2022/06/18 08:28:42;;;;;;;1.67;1.57;;;33.90;53.90;;;;;;5051334;28;20413;-68
2022/06/18 08:31:09;;;;;;;1.60;1.50;;;33.40;55.40;;;;;;5051569;28;20166;-70
2022/06/18 08:33:35;;;;;;;1.93;1.17;;;34.30;53.60;;;;;;5051375;28;20550;-69
2022/06/18 08:36:03;;;;;;;1.47;1.20;;;35.30;52.50;;;;;;5051670;28;20476;-69
2022/06/18 08:38:29;;;;;;;2.57;1.33;;;35.80;51.20;;;;;;5051456;28;20216;-69
2022/06/18 08:41:23;;;;;;;1.40;1.30;;;34.30;52.60;;;;;;5051251;28;20409;-69
2022/06/18 08:43:54;;;;;;;1.40;1.30;;;33.90;53.00;;;;;;5051164;28;20768;-69
2022/06/18 08:46:46;;;;;;;1.20;1.10;;;33.40;53.80;;;;;;5050880;28;20441;-69
2022/06/18 08:49:47;;;;;;;1.50;1.27;;;33.90;55.00;;;;;;5051251;28;20401;-69
2022/06/18 08:52:22;;;;;;;1.40;1.30;;;33.40;54.50;;;;;;5046054;28;20413;-69
2022/06/18 08:55:12;;;;;;;1.37;1.27;;;33.10;55.50;;;;;;5051095;28;20432;-69
2022/06/18 08:57:47;;;;;;;1.40;1.30;;;33.60;55.20;;;;;;5050958;28;20398;-69
2022/06/18 09:00:28;;;;;;;1.80;1.47;;;33.60;55.50;;;;;;5051099;28;20492;-69
2022/06/18 09:03:00;;;;;;;1.60;1.50;;;33.90;54.00;;;;;;5050721;28;20819;-69
2022/06/18 09:05:59;;;;;;;2.57;1.30;;;34.10;54.70;;;;;;5050976;28;20826;-69
2022/06/18 09:08:33;;;;;;;1.97;1.37;;;35.50;53.20;;;;;;5052085;28;20409;-69
2022/06/18 09:11:23;;;;;;;1.53;1.23;;;35.80;52.80;;;;;;5054833;28;20478;-69
2022/06/18 09:13:57;;;;;;;1.30;1.20;;;34.70;54.00;;;;;;5054681;28;20408;-69
2022/06/18 09:16:35;;;;;;;0.97;0.93;;;33.60;54.60;;;;;;5054260;28;20949;-69
2022/06/18 09:19:07;;;;;;;1.40;1.30;;;33.00;55.20;;;;;;5054489;28;20400;-69
2022/06/18 09:21:49;;;;;;;1.33;1.23;;;33.50;54.70;;;;;;5054478;28;20397;-69
2022/06/18 09:24:27;;;;;;;1.20;1.10;;;33.90;55.90;;;;;;5054482;28;20429;-69
2022/06/18 09:27:02;;;;;;;1.20;1.10;;;33.90;54.80;;;;;;5054604;28;20761;-69
2022/06/18 09:29:43;;;;;;;1.27;1.17;;;34.10;55.20;;;;;;5054433;28;20411;-70
2022/06/18 09:32:35;;;;;;;1.47;1.30;;;35.40;53.10;;;;;;5054187;28;20406;-69
2022/06/18 09:35:26;;;;;;;1.23;1.13;;;34.60;54.00;;;;;;5053958;28;20795;-70
2022/06/18 09:38:19;;;;;;;1.53;1.43;;;34.90;53.80;;;;;;5054428;28;20397;-69
2022/06/18 09:40:53;;;;;;;1.63;1.53;;;34.80;53.80;;;;;;5055108;28;20402;-69
2022/06/18 09:43:32;;;;;;;1.33;1.23;;;34.30;53.70;;;;;;5054228;28;20628;-69
2022/06/18 09:46:01;;;;;;;1.80;1.30;;;33.70;54.20;;;;;;5053645;28;20488;-69
2022/06/18 09:48:26;;;;;;;1.60;1.50;;;33.40;55.10;;;;;;5053912;28;20915;-69
2022/06/18 09:50:56;;;;;;;1.20;1.10;;;33.80;56.00;;;;;;5053818;28;20413;-69
2022/06/18 09:53:29;;;;;;;1.50;1.33;;;34.10;55.40;;;;;;5053905;28;20178;-69
2022/06/18 09:56:08;;;;;;;2.23;2.03;;;34.90;53.80;;;;;;5053613;28;20434;-70
2022/06/18 09:58:43;;;;;;;2.23;2.10;;;34.00;55.00;;;;;;5053794;28;20757;-69
2022/06/18 10:01:16;;;;;;;2.07;1.43;;;34.80;54.20;;;;;;5053689;28;20412;-69
2022/06/18 10:09:21;;;;;;;1.43;1.20;;;35.30;53.20;;;;;;5054160;28;20504;-69
2022/06/18 10:11:47;;;;;;;1.63;1.23;;;34.20;54.20;;;;;;5054142;28;20393;-69
2022/06/18 10:14:19;;;;;;;1.70;1.60;;;34.10;55.30;;;;;;5054214;28;20746;-69
2022/06/18 10:17:11;;;;;;;2.00;1.60;;;33.70;56.10;;;;;;5053663;28;20451;-69
2022/06/18 10:20:08;;;;;;;2.20;1.70;;;33.00;57.10;;;;;;5052438;28;20397;-69
2022/06/18 10:23:02;;;;;;;3.13;2.00;;;33.50;56.50;;;;;;5053322;28;20492;-70
2022/06/18 10:25:39;;;;;;;2.57;1.60;;;33.50;57.40;;;;;;5053289;28;20457;-69
2022/06/18 10:28:30;;;;;;;2.40;2.00;;;33.20;57.20;;;;;;5053371;28;20403;-69
2022/06/18 10:31:27;;;;;;;1.67;1.57;;;33.20;57.40;;;;;;5053856;28;20405;-69
2022/06/18 10:34:09;;;;;;;1.70;1.60;;;32.50;58.40;;;;;;5053803;28;20401;-69
2022/06/18 10:36:49;;;;;;;1.67;1.43;;;33.30;57.20;;;;;;5053929;28;20472;-69
2022/06/18 10:39:27;;;;;;;1.73;1.63;;;33.40;57.10;;;;;;5053787;28;20936;-71
2022/06/18 10:42:14;;;;;;;2.53;1.93;;;33.60;56.70;;;;;;5053228;28;20424;-69
2022/06/18 10:44:43;;;;;;;1.77;1.60;;;33.60;57.10;;;;;;5052322;28;20457;-68
2022/06/18 10:47:18;;;;;;;1.80;1.70;;;33.20;57.70;;;;;;5052881;28;20463;-68
2022/06/18 10:49:45;;;;;;;2.87;1.77;;;32.90;58.00;;;;;;5052904;28;20408;-68
2022/06/18 10:52:25;;;;;;;2.13;1.83;;;33.00;57.40;;;;;;5052662;28;20408;-69
2022/06/18 10:55:05;;;;;;;1.63;1.50;;;32.80;57.40;;;;;;5052567;28;20440;-69
2022/06/18 10:57:30;;;;;;;1.60;1.50;;;33.30;57.90;;;;;;5052547;28;20932;-69
2022/06/18 11:00:07;;;;;;;2.60;1.70;;;33.50;57.10;;;;;;5052925;28;20492;-69
2022/06/18 11:02:37;;;;;;;1.70;1.60;;;33.60;57.20;;;;;;5052539;28;20186;-69
2022/06/18 11:05:31;;;;;;;2.00;1.80;;;33.40;56.90;;;;;;5052215;28;20989;-69
2022/06/18 11:08:00;;;;;;;1.67;1.57;;;32.90;57.30;;;;;;5042380;28;20417;-69
2022/06/18 11:10:33;;;;;;;1.80;1.70;;;33.00;57.10;;;;;;5052385;28;20973;-69
2022/06/18 11:13:00;;;;;;;1.90;1.70;;;32.30;55.90;;;;;;5052397;28;20927;-70
2022/06/18 11:15:36;;;;;;;1.63;1.53;;;32.40;57.40;;;;;;5051993;28;20943;-70
2022/06/18 11:18:14;;;;;;;2.70;2.47;;;32.50;57.70;;;;;;5052418;28;20542;-70
2022/06/18 11:20:51;;;;;;;2.73;1.50;;;32.50;56.80;;;;;;5052465;28;20412;-69
2022/06/18 11:23:17;;;;;;;2.17;1.93;;;32.50;57.10;;;;;;5052159;28;20482;-69
2022/06/18 11:25:50;;;;;;;1.80;1.70;;;33.20;56.90;;;;;;5052303;28;20464;-69
2022/06/18 11:28:20;;;;;;;1.93;1.60;;;33.30;55.80;;;;;;5052135;28;20305;-69
2022/06/18 11:30:49;;;;;;;1.70;1.60;;;33.00;55.70;;;;;;5051723;28;20778;-71
2022/06/18 11:33:32;;;;;;;4.10;2.23;;;33.00;55.00;;;;;;5052097;28;20416;-69
2022/06/18 11:36:06;;;;;;;3.77;2.00;;;32.70;55.50;;;;;;5051922;28;20429;-69
2022/06/18 11:38:33;;;;;;;2.90;1.93;;;33.10;55.40;;;;;;5051784;28;20977;-70
2022/06/18 11:41:09;;;;;;;2.50;1.90;;;33.20;54.70;;;;;;5051789;28;20588;-70
2022/06/18 11:43:52;;;;;;;2.20;1.73;;;33.30;55.50;;;;;;5051479;28;20409;-70
2022/06/18 11:46:27;;;;;;;2.93;2.10;;;33.30;54.20;;;;;;5075012;22;20975;-68
2022/06/18 11:49:06;;;;;;;3.17;1.70;;;33.20;54.50;;;;;;5031694;28;20425;-69
2022/06/18 11:51:46;;;;;;;3.33;1.87;;;32.50;54.50;;;;;;5031794;28;20383;-68
2022/06/18 11:54:34;;;;;;;1.87;1.77;;;32.80;54.80;;;;;;5031801;28;20386;-68
2022/06/18 11:57:03;;;;;;;2.60;1.40;;;33.10;54.10;;;;;;5031555;28;20449;-69
2022/06/18 11:59:46;;;;;;;1.63;1.53;;;33.30;54.50;;;;;;5032268;28;20755;-69
2022/06/18 12:02:20;;;;;;;4.33;2.03;;;33.70;54.60;;;;;;5031577;28;20410;-69
2022/06/18 12:04:53;;;;;;;2.70;2.17;;;33.60;54.80;;;;;;5031403;28;20453;-69
2022/06/18 12:07:34;;;;;;;2.20;2.00;;;33.60;54.70;;;;;;5031592;28;20411;-69
2022/06/18 12:10:00;;;;;;;3.10;1.73;;;33.40;54.70;;;;;;5031412;28;20402;-68
2022/06/18 12:13:00;;;;;;;2.10;1.80;;;33.20;55.50;;;;;;5030956;28;20410;-68
2022/06/18 12:16:05;;;;;;;2.50;2.10;;;33.10;55.00;;;;;;5031309;28;20226;-69
2022/06/18 12:18:48;;;;;;;2.07;1.87;;;33.10;55.50;;;;;;5030739;28;20410;-69
2022/06/18 12:21:26;;;;;;;2.73;2.00;;;33.40;55.80;;;;;;5031671;28;20733;-68
2022/06/18 12:24:21;;;;;;;2.67;1.90;;;33.00;55.20;;;;;;5031474;28;20398;-68
2022/06/18 12:26:59;;;;;;;3.00;2.03;;;33.30;55.10;;;;;;5031050;28;20430;-69
2022/06/18 12:30:06;;;;;;;2.93;1.80;;;33.20;54.70;;;;;;5031377;28;20393;-70
2022/06/18 12:33:05;;;;;;;2.30;2.10;;;33.30;54.90;;;;;;5030913;28;20406;-70
2022/06/18 12:35:42;;;;;;;2.00;1.80;;;33.60;54.80;;;;;;4999018;28;20471;-68
2022/06/18 12:38:15;;;;;;;1.93;1.83;;;33.50;54.90;;;;;;5031486;28;20624;-69
2022/06/18 12:40:48;;;;;;;2.33;1.73;;;33.60;55.40;;;;;;5031199;28;20923;-69
2022/06/18 12:43:43;;;;;;;2.50;2.10;;;33.50;55.00;;;;;;5031840;28;20390;-68
2022/06/18 12:46:13;;;;;;;3.87;1.90;;;33.60;54.80;;;;;;5034951;28;20529;-69
2022/06/18 12:49:02;;;;;;;3.03;2.13;;;33.40;55.00;;;;;;5035342;28;20417;-70
2022/06/18 12:51:42;;;;;;;2.20;2.00;;;33.60;54.90;;;;;;5035675;28;20782;-70
2022/06/18 12:54:36;;;;;;;2.70;2.50;;;33.40;54.90;;;;;;5037126;28;20488;-69
2022/06/18 12:57:26;;;;;;;2.47;2.00;;;33.50;55.10;;;;;;5037368;28;20430;-69
2022/06/18 12:59:55;;;;;;;4.30;1.73;;;33.70;54.70;;;;;;5035470;28;20400;-68
2022/06/18 13:02:41;;;;;;;3.37;2.30;;;33.60;54.60;;;;;;5035324;28;20405;-71
2022/06/18 13:05:32;;;;;;;2.57;1.73;;;33.70;54.80;;;;;;5017204;28;21144;-69
2022/06/18 13:08:22;;;;;;;5.60;2.80;;;33.90;54.70;;;;;;5035599;28;20762;-69
2022/06/18 13:11:02;;;;;;;2.30;1.80;;;33.80;55.00;;;;;;5036403;28;20401;-69
2022/06/18 13:13:44;;;;;;;2.83;2.60;;;34.10;54.60;;;;;;5037431;28;20420;-69
2022/06/18 13:16:14;;;;;;;2.47;2.27;;;33.60;55.00;;;;;;5041358;28;20430;-68
2022/06/18 13:18:52;;;;;;;5.87;2.77;;;33.70;55.00;;;;;;5042025;28;20409;-71
2022/06/18 13:21:18;;;;;;;2.40;2.17;;;33.60;55.00;;;;;;5038067;28;20398;-69
2022/06/18 13:29:38;;;;;;;3.27;2.07;;;33.90;55.00;;;;;;5036550;28;20397;-69
2022/06/18 13:32:22;;;;;;;3.97;2.20;;;33.90;54.50;;;;;;5035084;28;20791;-69
2022/06/18 13:35:13;;;;;;;2.90;2.20;;;34.00;54.70;;;;;;5033942;28;20410;-69